Time;durP1;ratioP1;P1;durP2;ratioP2;P2;SDS_P1;SDS_P2;PMS_P1;PMS_P2;Temp;Humidity;BMP_temperature;BMP_pressure;BME280_temperature;BME280_humidity;BME280_pressure;Samples;Min_cycle;Max_cycle;Signal;HPM_P1;HPM_P2
2021/01/22 00:01:07;;;;;;;9.98;8.20;;;;;;;10.84;61.88;102482.56;4992809;28;20065;-65
2021/01/22 00:03:32;;;;;;;5.75;5.20;;;;;;;10.83;62.36;102486.03;4994107;28;20053;-65
2021/01/22 00:05:58;;;;;;;6.32;4.70;;;;;;;10.84;62.14;102489.56;4999242;28;20045;-65
2021/01/22 00:08:23;;;;;;;10.40;5.97;;;;;;;10.83;62.17;102496.59;4993131;28;20027;-65
2021/01/22 00:10:48;;;;;;;7.38;5.85;;;;;;;10.81;61.60;102502.66;4995307;28;20038;-65
2021/01/22 00:13:14;;;;;;;5.80;4.03;;;;;;;10.78;61.60;102509.63;5012331;28;20108;-65
2021/01/22 00:15:39;;;;;;;8.60;5.20;;;;;;;10.78;62.41;102503.44;4998065;28;20053;-65
2021/01/22 00:18:04;;;;;;;7.85;6.50;;;;;;;10.80;61.70;102509.69;4994530;28;20446;-66
2021/01/22 00:20:30;;;;;;;6.82;6.13;;;;;;;10.80;62.34;102509.69;5022961;28;20050;-65
2021/01/22 00:22:55;;;;;;;8.10;6.30;;;;;;;10.81;61.97;102505.31;5011850;28;20042;-65
2021/01/22 00:25:21;;;;;;;9.82;8.50;;;;;;;10.81;62.31;102502.66;5011074;28;20546;-65
2021/01/22 00:27:46;;;;;;;17.80;15.40;;;;;;;10.84;62.63;102505.41;5010180;28;20089;-65
2021/01/22 00:30:11;;;;;;;12.23;10.88;;;;;;;10.88;62.73;102510.03;5011692;28;20117;-65
2021/01/22 00:32:37;;;;;;;9.90;6.20;;;;;;;10.96;62.63;102498.91;5029345;28;20099;-65
2021/01/22 00:35:02;;;;;;;7.75;5.90;;;;;;;11.06;61.95;102497.56;5026283;28;20038;-65
2021/01/22 00:37:27;;;;;;;7.15;4.38;;;;;;;11.12;62.51;102505.75;5012224;28;20034;-65
2021/01/22 00:39:53;;;;;;;12.82;7.13;;;;;;;11.13;61.82;102504.91;5012883;28;20431;-64
2021/01/22 00:42:18;;;;;;;10.07;7.22;;;;;;;11.14;61.85;102499.69;5015481;28;20037;-65
2021/01/22 00:44:43;;;;;;;7.60;4.50;;;;;;;11.18;62.33;102501.63;5030043;28;20112;-65
2021/01/22 00:47:09;;;;;;;5.70;4.53;;;;;;;11.21;62.30;102503.50;5030712;28;20045;-66
2021/01/22 00:49:34;;;;;;;7.90;4.18;;;;;;;11.24;61.87;102505.34;5030500;28;20072;-65
2021/01/22 00:51:59;;;;;;;4.82;4.40;;;;;;;11.25;62.58;102493.94;5031246;28;20053;-65
2021/01/22 00:54:25;;;;;;;11.02;7.75;;;;;;;11.26;61.76;102488.72;5031119;28;20041;-65
2021/01/22 00:56:50;;;;;;;6.60;3.13;;;;;;;11.27;62.34;102482.59;5011843;28;20050;-65
2021/01/22 00:59:15;;;;;;;5.13;2.63;;;;;;;11.30;62.08;102481.78;5024100;28;20046;-65
2021/01/22 01:01:41;;;;;;;5.47;3.70;;;;;;;11.32;61.72;102482.78;5031075;28;20046;-65
2021/01/22 01:04:06;;;;;;;3.38;2.95;;;;;;;11.36;61.74;102480.31;5012767;28;20579;-65
2021/01/22 01:06:32;;;;;;;5.90;3.00;;;;;;;11.36;62.65;102471.47;5023219;28;20438;-66
2021/01/22 01:08:57;;;;;;;3.80;3.42;;;;;;;11.37;62.33;102475.91;5012210;28;20046;-65
2021/01/22 01:11:22;;;;;;;4.82;2.60;;;;;;;11.38;62.24;102469.78;5019093;28;20048;-65
2021/01/22 01:13:48;;;;;;;4.22;3.60;;;;;;;11.38;61.66;102460.13;5036584;28;20045;-65
2021/01/22 01:16:13;;;;;;;4.55;3.58;;;;;;;11.36;61.86;102456.50;5025007;28;20076;-65
2021/01/22 01:18:38;;;;;;;5.43;4.38;;;;;;;11.37;61.86;102466.25;5030430;28;20468;-65
2021/01/22 01:21:04;;;;;;;8.73;5.88;;;;;;;11.39;62.30;102461.03;5013862;28;20042;-65
2021/01/22 01:23:29;;;;;;;8.82;7.80;;;;;;;11.40;62.54;102460.19;5012339;28;20052;-65
2021/01/22 01:25:54;;;;;;;7.43;6.45;;;;;;;11.38;62.58;102460.13;5027201;28;20068;-65
2021/01/22 01:28:20;;;;;;;8.02;7.35;;;;;;;11.39;62.08;102458.38;5012300;28;20376;-65
2021/01/22 01:30:45;;;;;;;5.55;4.25;;;;;;;11.41;61.98;102457.63;5025513;28;20096;-65
2021/01/22 01:33:10;;;;;;;6.82;2.72;;;;;;;11.46;62.46;102455.13;5029122;28;20393;-65
2021/01/22 01:35:36;;;;;;;4.13;3.10;;;;;;;11.49;61.98;102456.16;5030402;28;20056;-66
2021/01/22 01:38:01;;;;;;;5.90;2.85;;;;;;;11.51;62.64;102458.84;5045743;28;20041;-67
2021/01/22 01:40:26;;;;;;;11.50;9.95;;;;;;;11.53;62.26;102463.38;5026516;28;20038;-65
2021/01/22 01:42:52;;;;;;;7.82;6.25;;;;;;;11.55;62.13;102453.72;5015794;28;20041;-65
2021/01/22 01:45:17;;;;;;;4.20;2.63;;;;;;;11.59;62.77;102455.69;5017510;28;20064;-66
2021/01/22 01:47:42;;;;;;;6.65;3.53;;;;;;;11.64;62.41;102460.22;5038324;28;20045;-65
2021/01/22 01:50:08;;;;;;;6.03;3.75;;;;;;;11.69;62.52;102451.63;5028233;28;20088;-65
2021/01/22 01:52:33;;;;;;;6.03;3.33;;;;;;;11.76;62.79;102456.34;5042170;28;20049;-65
2021/01/22 01:54:59;;;;;;;14.23;11.90;;;;;;;11.83;62.74;102458.38;5017523;28;20038;-65
2021/01/22 01:57:24;;;;;;;12.95;9.25;;;;;;;11.90;62.04;102455.13;5043574;28;20038;-65
2021/01/22 01:59:49;;;;;;;6.47;5.85;;;;;;;11.94;62.24;102453.50;5041682;28;20064;-65
2021/01/22 02:02:15;;;;;;;8.07;4.53;;;;;;;11.96;61.85;102442.09;5029548;28;20064;-65
2021/01/22 02:04:40;;;;;;;5.40;4.70;;;;;;;12.00;62.43;102451.09;5012014;28;20054;-65
2021/01/22 02:07:05;;;;;;;8.18;6.63;;;;;;;12.04;62.23;102446.78;5044194;28;20570;-66
2021/01/22 02:09:31;;;;;;;7.25;6.55;;;;;;;12.08;62.33;102449.59;5030214;28;20100;-65
2021/01/22 02:11:56;;;;;;;11.35;3.63;;;;;;;12.13;62.07;102440.09;5028405;28;20065;-65
2021/01/22 02:14:21;;;;;;;4.55;2.60;;;;;;;12.17;61.93;102442.00;5023766;28;20505;-65
2021/01/22 02:16:47;;;;;;;6.75;5.13;;;;;;;12.18;61.75;102434.97;5010990;28;20150;-65
2021/01/22 02:19:12;;;;;;;6.90;4.95;;;;;;;12.18;62.43;102434.97;5025601;28;20041;-65
2021/01/22 02:21:37;;;;;;;11.10;10.00;;;;;;;12.18;62.27;102433.22;5030330;28;20550;-65
2021/01/22 02:24:03;;;;;;;8.18;5.20;;;;;;;12.18;62.34;102430.56;5027905;28;20037;-65
2021/01/22 02:26:28;;;;;;;6.75;5.90;;;;;;;12.22;62.63;102428.91;5032651;28;20426;-65
2021/01/22 02:28:53;;;;;;;7.78;3.92;;;;;;;12.23;62.55;102422.78;5024132;28;20108;-64
2021/01/22 02:31:19;;;;;;;4.50;3.80;;;;;;;12.23;62.41;102423.69;5027929;28;20120;-65
2021/01/22 02:33:44;;;;;;;6.82;4.05;;;;;;;12.25;61.64;102414.06;5019833;28;20033;-65
2021/01/22 02:36:09;;;;;;;6.60;3.92;;;;;;;12.27;62.02;102427.34;5029327;28;20041;-66
2021/01/22 02:38:35;;;;;;;5.60;4.07;;;;;;;12.25;61.97;102423.75;5027724;28;20057;-65
2021/01/22 02:41:00;;;;;;;4.95;3.17;;;;;;;12.25;61.94;102418.44;5029180;28;20038;-65
2021/01/22 02:43:25;;;;;;;7.63;3.55;;;;;;;12.26;61.91;102418.50;5027891;28;20049;-65
2021/01/22 02:45:51;;;;;;;7.63;4.22;;;;;;;12.28;62.02;102421.19;5017768;28;20096;-65
2021/01/22 02:48:16;;;;;;;5.05;3.60;;;;;;;12.29;62.75;102412.41;5019629;28;20041;-65
2021/01/22 02:50:42;;;;;;;6.47;5.05;;;;;;;12.31;62.70;102410.72;5029761;28;20037;-65
2021/01/22 02:53:07;;;;;;;7.53;4.07;;;;;;;12.34;62.80;102416.09;5020662;28;20087;-65
2021/01/22 02:55:32;;;;;;;9.50;4.47;;;;;;;12.37;62.27;102416.22;5041253;28;20065;-66
2021/01/22 02:57:58;;;;;;;51.53;29.98;;;;;;;12.37;61.95;102413.56;5028848;28;20060;-65
2021/01/22 03:00:23;;;;;;;46.47;30.77;;;;;;;12.36;62.32;102412.66;5029606;28;20041;-65
2021/01/22 03:02:49;;;;;;;31.27;24.65;;;;;;;12.37;62.31;102414.47;5024374;28;20049;-65
2021/01/22 03:05:14;;;;;;;16.58;8.02;;;;;;;12.39;62.57;102409.25;5024088;28;20053;-65
2021/01/22 03:07:39;;;;;;;16.23;14.52;;;;;;;12.37;62.72;102411.84;5010125;28;20068;-65
2021/01/22 03:10:05;;;;;;;18.67;15.45;;;;;;;12.38;62.68;102411.00;5015748;28;20041;-65
2021/01/22 03:12:30;;;;;;;4.53;3.72;;;;;;;12.38;62.97;102412.72;5033762;28;20065;-65
2021/01/22 03:14:55;;;;;;;10.40;5.95;;;;;;;12.38;62.88;102408.34;5022679;28;20046;-64
2021/01/22 03:17:21;;;;;;;6.20;5.60;;;;;;;12.40;61.96;102418.09;5023466;28;20458;-65
2021/01/22 03:19:46;;;;;;;6.28;3.03;;;;;;;12.40;62.34;102416.34;5016851;28;20048;-65
2021/01/22 03:22:11;;;;;;;5.97;1.95;;;;;;;12.41;62.32;102418.13;5032788;28;20049;-65
2021/01/22 03:24:37;;;;;;;5.75;2.70;;;;;;;12.41;61.98;102417.22;5031648;28;20041;-66
2021/01/22 03:27:02;;;;;;;8.30;2.28;;;;;;;12.41;62.71;102410.16;5032835;28;20100;-66
2021/01/22 03:29:28;;;;;;;8.32;2.55;;;;;;;12.40;62.21;102410.16;5015133;28;20060;-65
2021/01/22 03:31:53;;;;;;;4.63;3.00;;;;;;;12.38;62.69;102418.94;5019084;28;20422;-65
2021/01/22 03:34:20;;;;;;;12.02;3.10;;;;;;;12.38;62.38;102412.72;5025458;28;20049;-66
2021/01/22 03:36:46;;;;;;;4.38;2.92;;;;;;;12.38;62.95;102407.44;5032174;28;20419;-66
2021/01/22 03:39:11;;;;;;;8.38;2.10;;;;;;;12.40;63.13;102407.50;5020053;28;20062;-66
2021/01/22 03:41:37;;;;;;;7.95;2.70;;;;;;;12.40;62.21;102408.41;5027206;28;20451;-65
2021/01/22 03:44:02;;;;;;;8.48;2.38;;;;;;;12.43;63.20;102410.22;5038173;28;20125;-65
2021/01/22 03:46:27;;;;;;;7.80;2.40;;;;;;;12.47;62.95;102410.38;5031276;28;20407;-66
2021/01/22 03:48:53;;;;;;;4.88;2.45;;;;;;;12.50;62.88;102413.16;5021549;28;20116;-65
2021/01/22 03:51:18;;;;;;;7.25;2.35;;;;;;;12.56;62.05;102412.44;5012596;28;20105;-65
2021/01/22 03:53:43;;;;;;;5.40;2.50;;;;;;;12.60;62.26;102419.69;5013216;28;20057;-65
2021/01/22 03:56:09;;;;;;;4.78;2.38;;;;;;;12.64;62.28;102414.53;5012531;28;20176;-66
2021/01/22 03:58:34;;;;;;;5.65;3.72;;;;;;;12.67;62.22;102416.34;5028908;28;20061;-65
2021/01/22 04:00:59;;;;;;;7.30;6.03;;;;;;;12.67;62.22;102416.34;5027655;28;20034;-65
2021/01/22 04:03:25;;;;;;;12.48;8.45;;;;;;;12.68;62.17;102416.41;5017288;28;20376;-65
2021/01/22 04:05:50;;;;;;;5.80;4.70;;;;;;;12.68;62.01;102410.22;5031746;28;20034;-65
2021/01/22 04:08:16;;;;;;;5.30;3.33;;;;;;;12.68;62.23;102412.88;5032202;28;20042;-66
2021/01/22 04:10:41;;;;;;;6.82;4.32;;;;;;;12.67;62.70;102411.97;5030226;28;20529;-66
2021/01/22 04:13:06;;;;;;;8.00;4.32;;;;;;;12.68;61.85;102413.75;5019268;28;20077;-66
2021/01/22 04:15:32;;;;;;;13.45;9.65;;;;;;;12.69;62.66;102419.97;5012457;28;20041;-65
2021/01/22 04:17:57;;;;;;;17.65;12.30;;;;;;;12.70;62.60;102409.44;5028345;28;20038;-65
2021/01/22 04:20:23;;;;;;;11.50;6.90;;;;;;;12.71;62.72;102410.34;5042064;28;20057;-65
2021/01/22 04:22:48;;;;;;;8.57;4.78;;;;;;;12.71;62.08;102411.22;5027265;28;20499;-65
2021/01/22 04:25:13;;;;;;;6.78;5.22;;;;;;;12.71;61.88;102405.03;5019670;28;20730;-65
2021/01/22 04:27:39;;;;;;;18.73;11.98;;;;;;;12.72;62.85;102404.19;5012461;28;20449;-65
2021/01/22 04:30:04;;;;;;;10.45;6.88;;;;;;;12.73;61.77;102412.16;5015634;28;20042;-65
2021/01/22 04:32:29;;;;;;;7.63;5.15;;;;;;;12.74;61.94;102408.66;5046936;28;20049;-65
2021/01/22 04:34:55;;;;;;;6.82;4.95;;;;;;;12.74;62.04;102421.91;5027711;28;20026;-65
2021/01/22 04:37:20;;;;;;;5.85;3.60;;;;;;;12.72;62.11;102410.38;5012393;28;20030;-65
2021/01/22 04:39:45;;;;;;;7.25;3.72;;;;;;;12.73;61.86;102421.91;5023477;28;20041;-65
2021/01/22 04:42:11;;;;;;;4.53;3.90;;;;;;;12.70;61.87;102422.69;5030231;28;20034;-65
2021/01/22 04:44:37;;;;;;;3.78;2.72;;;;;;;12.69;62.39;102420.88;5029403;28;20068;-65
2021/01/22 04:47:02;;;;;;;4.65;2.40;;;;;;;12.70;62.33;102419.13;5012690;28;20117;-65
2021/01/22 04:49:28;;;;;;;3.00;1.88;;;;;;;12.71;62.38;102421.84;5027458;28;20550;-65
2021/01/22 04:51:53;;;;;;;3.00;1.92;;;;;;;12.75;61.57;102415.78;5028894;28;20041;-65
2021/01/22 04:54:18;;;;;;;6.55;2.10;;;;;;;12.76;61.56;102417.59;5026723;28;20042;-66
2021/01/22 04:56:44;;;;;;;3.38;2.53;;;;;;;12.76;62.14;102419.31;5011977;28;20041;-65
2021/01/22 04:59:09;;;;;;;6.40;2.47;;;;;;;12.80;61.75;102423.88;5027935;28;20081;-65
2021/01/22 05:01:34;;;;;;;2.50;2.28;;;;;;;12.84;62.09;102424.88;5015378;28;20076;-66
2021/01/22 05:04:00;;;;;;;2.35;1.92;;;;;;;12.89;62.29;102428.59;5021080;28;20072;-65
2021/01/22 05:06:25;;;;;;;4.80;2.45;;;;;;;12.92;61.75;102428.69;5029750;28;20065;-65
2021/01/22 05:08:50;;;;;;;4.00;2.05;;;;;;;12.95;61.99;102434.97;5031345;28;20041;-65
2021/01/22 05:11:16;;;;;;;4.88;2.80;;;;;;;12.99;61.88;102431.59;5028785;28;20468;-65
2021/01/22 05:13:41;;;;;;;9.70;5.38;;;;;;;13.03;62.00;102432.59;5031393;28;20054;-65
2021/01/22 05:16:06;;;;;;;15.25;7.07;;;;;;;13.06;61.92;102433.56;5016884;28;20045;-66
2021/01/22 05:18:32;;;;;;;22.88;7.50;;;;;;;13.08;61.91;102433.63;5026546;28;20034;-65
2021/01/22 05:20:57;;;;;;;6.88;5.43;;;;;;;13.08;62.14;102429.22;5035166;28;20052;-65
2021/01/22 05:23:23;;;;;;;4.75;3.92;;;;;;;13.07;61.59;102432.72;5029843;28;20533;-66
2021/01/22 05:25:48;;;;;;;11.52;4.65;;;;;;;13.09;62.14;102436.34;5011202;28;20092;-66
2021/01/22 05:28:13;;;;;;;8.98;5.43;;;;;;;13.13;61.67;102432.06;5010913;28;20034;-65
2021/01/22 05:30:39;;;;;;;12.02;4.90;;;;;;;13.15;62.22;102433.91;5036683;28;20041;-66
2021/01/22 05:33:04;;;;;;;19.65;6.07;;;;;;;13.18;61.56;102432.22;5029489;28;20072;-65
2021/01/22 05:35:29;;;;;;;5.30;3.42;;;;;;;13.19;62.07;102437.56;5027775;28;20052;-65
2021/01/22 05:37:55;;;;;;;8.10;3.58;;;;;;;13.19;61.84;102429.63;5024712;28;20481;-65
2021/01/22 05:40:20;;;;;;;3.60;2.30;;;;;;;13.21;61.62;102430.56;5039461;28;20490;-66
2021/01/22 05:42:46;;;;;;;4.03;1.92;;;;;;;13.21;61.51;102425.25;5050659;28;20063;-65
2021/01/22 05:45:11;;;;;;;4.32;1.90;;;;;;;13.23;61.87;102426.19;5036564;28;20120;-65
2021/01/22 05:47:36;;;;;;;4.85;1.98;;;;;;;13.23;61.45;102431.50;5029666;28;20099;-65
2021/01/22 05:50:02;;;;;;;3.75;1.50;;;;;;;13.22;61.98;102420.84;5017479;28;20101;-65
2021/01/22 05:52:27;;;;;;;6.07;1.95;;;;;;;13.21;61.45;102422.59;5014848;28;20042;-65
2021/01/22 05:54:53;;;;;;;4.95;2.65;;;;;;;13.22;61.84;102419.09;5018528;28;20062;-66
2021/01/22 05:57:18;;;;;;;6.13;2.35;;;;;;;13.23;61.76;102420.00;5029474;28;20384;-66
2021/01/22 05:59:43;;;;;;;5.28;2.08;;;;;;;13.23;61.30;102420.91;5026178;28;20038;-65
2021/01/22 06:02:09;;;;;;;4.05;2.00;;;;;;;13.28;61.57;102419.28;5025388;28;20065;-65
2021/01/22 06:04:34;;;;;;;2.78;2.20;;;;;;;13.32;61.31;102421.19;5012181;28;20049;-65
2021/01/22 06:07:00;;;;;;;12.55;8.13;;;;;;;13.39;61.37;102415.19;5020079;28;20594;-65
2021/01/22 06:09:25;;;;;;;11.43;8.45;;;;;;;13.46;61.34;102416.28;5028455;28;20038;-65
2021/01/22 06:11:50;;;;;;;7.68;5.97;;;;;;;13.53;60.85;102418.28;5010552;28;20040;-65
2021/01/22 06:14:16;;;;;;;21.27;11.43;;;;;;;13.61;60.92;102419.41;5032026;28;20096;-65
2021/01/22 06:16:41;;;;;;;13.27;10.25;;;;;;;13.67;60.92;102414.28;5011960;28;20490;-65
2021/01/22 06:19:06;;;;;;;16.38;4.60;;;;;;;13.74;60.91;102416.25;5026675;28;20060;-65
2021/01/22 06:21:32;;;;;;;4.82;2.00;;;;;;;13.79;60.53;102425.25;5010529;28;20037;-65
2021/01/22 06:23:57;;;;;;;5.50;4.05;;;;;;;13.86;61.05;102427.22;5015941;28;20070;-65
2021/01/22 06:26:23;;;;;;;10.60;4.72;;;;;;;13.95;60.96;102424.84;5026374;28;20052;-65
2021/01/22 06:28:48;;;;;;;9.48;4.55;;;;;;;14.07;60.61;102415.41;5012056;28;20080;-65
2021/01/22 06:31:13;;;;;;;28.52;15.52;;;;;;;14.18;60.63;102420.16;5029084;28;20034;-66
2021/01/22 06:33:39;;;;;;;52.92;34.17;;;;;;;14.31;60.17;102416.09;5029104;28;20043;-65
2021/01/22 06:36:04;;;;;;;43.38;32.47;;;;;;;14.47;59.92;102418.34;5017326;28;20455;-65
2021/01/22 06:38:29;;;;;;;40.75;33.58;;;;;;;14.62;59.74;102429.38;5015860;28;20041;-62
2021/01/22 06:40:55;;;;;;;27.92;19.60;;;;;;;14.72;59.24;102426.09;5014805;28;20046;-67
2021/01/22 06:43:20;;;;;;;20.10;13.82;;;;;;;14.76;59.80;102421.75;5022159;28;20042;-66
2021/01/22 06:45:45;;;;;;;17.10;12.45;;;;;;;14.77;59.69;102427.97;5020785;28;20076;-67
2021/01/22 06:48:11;;;;;;;27.85;11.70;;;;;;;14.77;59.47;102422.66;5028323;28;20410;-66
2021/01/22 06:50:36;;;;;;;19.35;9.02;;;;;;;14.77;59.28;102419.13;5030894;28;20072;-66
2021/01/22 06:53:01;;;;;;;17.52;10.52;;;;;;;14.83;59.58;102422.81;5042162;28;20057;-66
2021/01/22 06:55:27;;;;;;;19.10;11.90;;;;;;;14.93;59.20;102420.41;5033298;28;20042;-67
2021/01/22 06:57:52;;;;;;;25.10;16.50;;;;;;;15.07;59.39;102421.63;5025263;28;20067;-66
2021/01/22 07:00:17;;;;;;;25.85;16.67;;;;;;;15.21;59.06;102419.31;5026635;28;20622;-67
2021/01/22 07:02:43;;;;;;;24.88;19.88;;;;;;;15.32;58.98;102422.19;5030844;28;20462;-66
2021/01/22 07:05:08;;;;;;;44.10;34.17;;;;;;;15.40;59.02;102424.19;5031029;28;20050;-66
2021/01/22 07:07:34;;;;;;;68.43;53.55;;;;;;;15.49;58.98;102429.69;5032124;28;20447;-66
2021/01/22 07:09:59;;;;;;;77.28;66.85;;;;;;;15.65;58.50;102423.00;5032939;28;20042;-66
2021/01/22 07:12:25;;;;;;;89.72;75.63;;;;;;;15.81;58.77;102422.47;5033134;28;20433;-67
2021/01/22 07:14:50;;;;;;;76.20;60.00;;;;;;;15.97;58.11;102422.75;5031362;28;20072;-71
2021/01/22 07:17:16;;;;;;;56.00;46.50;;;;;;;16.10;58.38;102415.03;5032341;28;20068;-67
2021/01/22 07:19:41;;;;;;;48.13;40.03;;;;;;;16.23;58.20;102410.84;5031735;28;20048;-68
2021/01/22 07:22:06;;;;;;;45.13;35.47;;;;;;;16.33;57.37;102408.41;5031109;28;20423;-66
2021/01/22 07:24:32;;;;;;;48.25;34.72;;;;;;;16.45;57.71;102412.13;5032908;28;20124;-67
2021/01/22 07:26:57;;;;;;;48.03;33.10;;;;;;;16.56;57.47;102413.22;5030585;28;20113;-65
2021/01/22 07:29:24;;;;;;;37.05;24.83;;;;;;;16.65;56.99;102411.66;5014216;28;20560;-66
2021/01/22 07:31:50;;;;;;;41.85;26.42;;;;;;;16.73;57.12;102420.69;5031748;28;20041;-64
2021/01/22 07:34:15;;;;;;;42.70;29.50;;;;;;;16.79;56.38;102414.56;5032223;28;20036;-66
2021/01/22 07:36:40;;;;;;;49.90;37.42;;;;;;;16.79;56.36;102419.91;5031105;28;20041;-67
2021/01/22 07:39:06;;;;;;;53.45;40.22;;;;;;;16.80;56.29;102421.69;5032570;28;20049;-66
2021/01/22 07:41:31;;;;;;;58.78;48.88;;;;;;;16.86;56.64;102424.47;5030194;28;20152;-66
2021/01/22 07:43:56;;;;;;;44.13;37.35;;;;;;;16.95;56.48;102416.59;5025843;28;20494;-64
2021/01/22 07:46:22;;;;;;;51.05;37.05;;;;;;;17.04;55.96;102413.19;5032631;28;20062;-68
2021/01/22 07:48:50;;;;;;;41.35;32.05;;;;;;;17.19;55.70;102418.75;5027654;28;20053;-67
2021/01/22 07:51:15;;;;;;;63.42;46.88;;;;;;;17.38;55.48;102417.25;5029581;28;20034;-67
2021/01/22 07:53:41;;;;;;;66.32;53.05;;;;;;;17.60;55.76;102421.09;5030670;28;20518;-67
2021/01/22 07:56:06;;;;;;;49.47;41.78;;;;;;;17.77;55.08;102425.84;5027488;28;20087;-67
2021/01/22 07:58:31;;;;;;;46.97;37.55;;;;;;;17.88;54.74;102420.63;5030573;28;20046;-65
2021/01/22 08:00:57;;;;;;;40.65;34.00;;;;;;;18.01;54.93;102419.88;5032388;28;20506;-64
2021/01/22 08:03:22;;;;;;;26.85;20.52;;;;;;;18.19;54.48;102422.75;5032425;28;20609;-69
2021/01/22 08:05:47;;;;;;;24.52;19.38;;;;;;;18.31;54.16;102422.88;5028488;28;20167;-68
2021/01/22 08:08:12;;;;;;;30.70;21.05;;;;;;;18.45;53.86;102424.81;5032198;28;20025;-67
2021/01/22 08:10:38;;;;;;;36.75;27.08;;;;;;;18.62;53.37;102417.88;5028695;28;20038;-67
2021/01/22 08:13:03;;;;;;;47.67;36.92;;;;;;;18.97;53.22;102426.22;5034323;28;20051;-65
2021/01/22 08:15:28;;;;;;;34.83;27.20;;;;;;;19.10;53.01;102420.94;5043096;28;20121;-67
2021/01/22 08:17:54;;;;;;;28.75;18.33;;;;;;;19.14;52.93;102420.97;5032188;28;20065;-67
2021/01/22 08:20:19;;;;;;;13.55;8.43;;;;;;;19.09;52.46;102415.59;5030485;28;20038;-68
2021/01/22 08:22:44;;;;;;;13.55;8.52;;;;;;;19.02;52.66;102414.66;5032462;28;20120;-68
2021/01/22 08:25:10;;;;;;;19.42;8.90;;;;;;;18.97;52.48;102415.53;5026035;28;20038;-68
2021/01/22 08:27:35;;;;;;;13.80;10.05;;;;;;;18.95;52.34;102420.84;5026436;28;20041;-68
2021/01/22 08:30:01;;;;;;;22.05;10.70;;;;;;;18.95;52.48;102415.50;5019338;28;20037;-67
2021/01/22 08:32:26;;;;;;;8.77;6.70;;;;;;;18.96;52.44;102414.63;5045138;28;20100;-66
2021/01/22 08:34:51;;;;;;;11.65;5.55;;;;;;;18.92;52.35;102407.44;5025523;28;20148;-65
2021/01/22 08:37:17;;;;;;;10.55;4.88;;;;;;;18.89;52.40;102409.19;5029387;28;20056;-66
2021/01/22 08:39:42;;;;;;;6.50;4.28;;;;;;;18.89;52.25;102407.44;5021848;28;20038;-67
2021/01/22 08:42:07;;;;;;;13.93;11.48;;;;;;;18.96;52.29;102401.25;5031103;28;20045;-66
2021/01/22 08:44:33;;;;;;;10.55;7.70;;;;;;;19.02;52.30;102406.63;5024059;28;20395;-67
2021/01/22 08:46:58;;;;;;;9.00;5.82;;;;;;;19.05;52.00;102405.72;5029892;28;20104;-66
2021/01/22 08:49:24;;;;;;;11.20;6.57;;;;;;;19.06;51.85;102399.50;5031384;28;20080;-67
2021/01/22 08:51:49;;;;;;;16.50;7.80;;;;;;;19.09;51.87;102400.44;5031566;28;20034;-67
2021/01/22 08:54:14;;;;;;;27.77;20.60;;;;;;;19.10;51.97;102396.84;5030844;28;20048;-67
2021/01/22 08:56:40;;;;;;;41.85;34.50;;;;;;;19.17;51.46;102397.78;5031175;28;20126;-67
2021/01/22 08:59:05;;;;;;;46.47;41.33;;;;;;;19.29;51.75;102405.03;5029080;28;20037;-66
2021/01/22 09:01:30;;;;;;;31.60;28.15;;;;;;;19.43;51.07;102397.94;5031588;28;20032;-67
2021/01/22 09:03:56;;;;;;;19.70;17.52;;;;;;;19.57;51.11;102398.94;5030958;28;20446;-67
2021/01/22 09:06:21;;;;;;;30.92;25.17;;;;;;;19.73;50.94;102389.19;5030835;28;20041;-67
2021/01/22 09:08:46;;;;;;;32.30;26.65;;;;;;;19.98;50.71;102387.50;5031044;28;20041;-67
2021/01/22 09:11:13;;;;;;;26.90;22.55;;;;;;;20.05;50.62;102387.53;5030619;28;20494;-67
2021/01/22 09:13:38;;;;;;;30.58;22.23;;;;;;;20.10;50.18;102377.69;5030452;28;20052;-67
2021/01/22 09:16:04;;;;;;;25.90;21.15;;;;;;;20.11;49.81;102382.16;5030004;28;20570;-66
2021/01/22 09:18:29;;;;;;;29.42;21.88;;;;;;;20.14;49.94;102373.25;5029582;28;20125;-66
2021/01/22 09:20:55;;;;;;;23.83;18.55;;;;;;;20.19;49.92;102380.41;5031212;28;20445;-67
2021/01/22 09:23:20;;;;;;;24.90;21.38;;;;;;;20.17;50.08;102376.81;5030697;28;20450;-67
2021/01/22 09:25:45;;;;;;;35.13;26.23;;;;;;;20.18;49.88;102377.72;5031165;28;20107;-67
2021/01/22 09:28:11;;;;;;;33.97;27.35;;;;;;;20.12;50.20;102367.88;5030461;28;20042;-67
2021/01/22 09:30:36;;;;;;;29.73;24.33;;;;;;;19.98;50.06;102366.94;5030907;28;20043;-66
2021/01/22 09:33:01;;;;;;;25.98;18.08;;;;;;;19.77;50.33;102358.81;5030219;28;20037;-66
2021/01/22 09:35:27;;;;;;;18.92;10.77;;;;;;;19.55;50.59;102357.88;5030876;28;20037;-67
2021/01/22 09:37:52;;;;;;;18.75;14.10;;;;;;;19.35;50.70;102349.72;5030300;28;20068;-67
2021/01/22 09:40:17;;;;;;;23.50;16.20;;;;;;;19.19;50.59;102346.91;5030525;28;20053;-67
2021/01/22 09:42:43;;;;;;;20.38;10.20;;;;;;;19.01;51.17;102340.59;5029385;28;20037;-67
2021/01/22 09:45:08;;;;;;;13.45;9.05;;;;;;;18.90;51.33;102341.41;5030355;28;20034;-67
2021/01/22 09:47:33;;;;;;;11.45;6.22;;;;;;;18.78;51.08;102334.16;5030012;28;20033;-66
2021/01/22 09:49:59;;;;;;;11.43;5.68;;;;;;;18.62;51.53;102319.81;5030167;28;20044;-66
2021/01/22 09:52:24;;;;;;;9.15;5.10;;;;;;;18.48;51.21;102309.84;5030367;28;20437;-66
2021/01/22 09:54:49;;;;;;;12.05;6.70;;;;;;;18.33;51.56;102315.94;5030579;28;20068;-67
2021/01/22 09:57:15;;;;;;;10.80;7.68;;;;;;;18.24;51.57;102313.22;5030143;28;20045;-67
2021/01/22 09:59:40;;;;;;;8.52;5.43;;;;;;;18.14;52.08;102309.53;5030576;28;20160;-67
2021/01/22 10:02:05;;;;;;;15.52;6.22;;;;;;;18.10;52.05;102305.06;5029643;28;20112;-66
2021/01/22 10:04:31;;;;;;;8.10;5.07;;;;;;;18.11;51.99;102306.84;5030307;28;20456;-67
2021/01/22 10:06:56;;;;;;;8.75;4.85;;;;;;;18.09;51.33;102292.56;5030541;28;20085;-67
2021/01/22 10:09:22;;;;;;;11.13;5.47;;;;;;;18.11;52.04;102290.81;5029903;28;20037;-67
2021/01/22 10:11:47;;;;;;;5.68;5.07;;;;;;;18.39;51.08;102293.69;5029548;28;20054;-66
2021/01/22 10:14:12;;;;;;;11.98;5.80;;;;;;;18.89;50.91;102286.97;5011836;28;20091;-67
2021/01/22 10:16:38;;;;;;;19.77;7.00;;;;;;;19.24;50.27;102279.09;5010588;28;20030;-66
2021/01/22 10:19:03;;;;;;;8.10;5.18;;;;;;;19.64;49.68;102271.25;5009195;28;20069;-66
2021/01/22 10:21:28;;;;;;;12.70;6.57;;;;;;;19.92;49.60;102265.06;5033697;28;20438;-66
2021/01/22 10:23:54;;;;;;;10.45;6.80;;;;;;;20.05;48.92;102263.28;5011908;28;20038;-67
2021/01/22 10:26:19;;;;;;;16.40;8.32;;;;;;;20.04;48.92;102256.13;5012853;28;20068;-66
2021/01/22 10:28:45;;;;;;;11.52;7.90;;;;;;;20.00;48.72;102252.56;5026343;28;20056;-67
2021/01/22 10:31:10;;;;;;;8.95;6.00;;;;;;;19.86;48.88;102246.28;5028164;28;20060;-67
2021/01/22 10:33:36;;;;;;;9.05;5.53;;;;;;;19.68;48.87;102249.84;5028619;28;20046;-63
2021/01/22 10:36:01;;;;;;;8.32;6.00;;;;;;;19.62;49.15;102249.84;5022460;28;20041;-65
2021/01/22 10:38:27;;;;;;;7.20;4.95;;;;;;;19.58;48.81;102248.00;5041945;28;20076;-65
2021/01/22 10:40:52;;;;;;;8.27;6.03;;;;;;;19.59;48.83;102240.88;5029510;28;20060;-66
2021/01/22 10:43:18;;;;;;;12.27;6.20;;;;;;;19.57;48.67;102243.53;5029214;28;20056;-72
2021/01/22 10:45:43;;;;;;;8.32;6.63;;;;;;;19.58;48.65;102234.63;5026982;28;20187;-66
2021/01/22 10:48:08;;;;;;;8.07;5.10;;;;;;;19.69;48.38;102238.19;5032089;28;20046;-66
2021/01/22 10:50:34;;;;;;;8.30;6.72;;;;;;;19.76;48.03;102226.59;5028457;28;20038;-66
2021/01/22 10:52:59;;;;;;;10.55;6.22;;;;;;;19.75;48.14;102222.16;5027921;28;20038;-65
2021/01/22 10:55:24;;;;;;;9.70;6.82;;;;;;;19.82;47.78;102213.19;5026834;28;20041;-66
2021/01/22 10:57:50;;;;;;;13.60;8.27;;;;;;;19.86;47.92;102209.66;5021597;28;20053;-65
2021/01/22 11:00:15;;;;;;;12.48;7.80;;;;;;;19.96;47.61;102206.94;5047936;28;20055;-66
2021/01/22 11:02:40;;;;;;;8.05;6.13;;;;;;;20.01;47.64;102207.88;5042651;28;20453;-66
2021/01/22 11:05:06;;;;;;;9.27;6.10;;;;;;;19.98;47.32;102198.03;5014199;28;20045;-67
2021/01/22 11:07:31;;;;;;;10.02;4.70;;;;;;;19.90;47.36;102200.69;5023686;28;20068;-67
2021/01/22 11:09:56;;;;;;;8.90;7.25;;;;;;;19.77;47.28;102196.22;5028131;28;20073;-67